KLM56H ELLX-EHAM
Flight info
| Callsign | KLM56H |
|---|---|
| Flight time | 0h 42m |
| Altitude | 24000 |
| Route | LNO N852 TERLA L608 BUB Y28 HELEN |
| Aircraft | B738/M-SDE2E3FGHIRWXY/LB1 |
Departure
| Time | 2026-04-28 11:57 |
|---|---|
| Airport | Luxembourg-Findel International Airport (ELLX) |
Arrival
| Time | 2026-04-28 12:39 |
|---|---|
| Airport | Amsterdam Airport Schiphol (EHAM) |
| Time | Latitude | Longitude | Altitude | Speed | Heading |
|---|---|---|---|---|---|
| 2026-04-28 11:34 | 49.63332 | 6.21557 | 1229 ft | 0 kts | 330° |
| 2026-04-28 11:35 | 49.63331 | 6.21557 | 1229 ft | 0 kts | 330° |
| 2026-04-28 11:50 | 49.63331 | 6.21558 | 1229 ft | 1 kts | 330° |
| 2026-04-28 11:50 | 49.63310 | 6.21576 | 1229 ft | 4 kts | 330° |
| 2026-04-28 11:50 | 49.63292 | 6.21592 | 1229 ft | 4 kts | 326° |
| 2026-04-28 11:51 | 49.63272 | 6.21619 | 1229 ft | 4 kts | 302° |
| 2026-04-28 11:51 | 49.63261 | 6.21657 | 1229 ft | 4 kts | 296° |
| 2026-04-28 11:51 | 49.63249 | 6.21679 | 1229 ft | 3 kts | 330° |
| 2026-04-28 11:51 | 49.63235 | 6.21692 | 1229 ft | 2 kts | 330° |
| 2026-04-28 11:52 | 49.63233 | 6.21693 | 1229 ft | 0 kts | 330° |
| 2026-04-28 11:53 | 49.63234 | 6.21692 | 1229 ft | 1 kts | 329° |
| 2026-04-28 11:53 | 49.63262 | 6.21650 | 1229 ft | 11 kts | 301° |
| 2026-04-28 11:54 | 49.63228 | 6.21537 | 1229 ft | 15 kts | 175° |
| 2026-04-28 11:54 | 49.63126 | 6.21623 | 1228 ft | 19 kts | 148° |
| 2026-04-28 11:54 | 49.63048 | 6.21549 | 1225 ft | 17 kts | 244° |
| 2026-04-28 11:54 | 49.62985 | 6.21352 | 1228 ft | 23 kts | 243° |
| 2026-04-28 11:55 | 49.62907 | 6.21095 | 1232 ft | 31 kts | 244° |
| 2026-04-28 11:55 | 49.62798 | 6.20770 | 1238 ft | 37 kts | 232° |
| 2026-04-28 11:55 | 49.62600 | 6.20474 | 1239 ft | 43 kts | 230° |
| 2026-04-28 11:55 | 49.62422 | 6.20082 | 1214 ft | 47 kts | 242° |
| 2026-04-28 11:56 | 49.62257 | 6.19629 | 1188 ft | 50 kts | 240° |
| 2026-04-28 11:56 | 49.62078 | 6.19154 | 1164 ft | 52 kts | 240° |
| 2026-04-28 11:56 | 49.61889 | 6.18742 | 1156 ft | 38 kts | 210° |
| 2026-04-28 11:56 | 49.61798 | 6.18878 | 1160 ft | 26 kts | 61° |
| 2026-04-28 11:57 | 49.62006 | 6.19426 | 1175 ft | 97 kts | 60° |
| 2026-04-28 11:57 | 49.62446 | 6.20615 | 1241 ft | 157 kts | 60° |
| 2026-04-28 11:57 | 49.63003 | 6.22204 | 1868 ft | 171 kts | 63° |
| 2026-04-28 11:57 | 49.63541 | 6.23749 | 3200 ft | 155 kts | 61° |
| 2026-04-28 11:58 | 49.64120 | 6.25249 | 3825 ft | 176 kts | 62° |
| 2026-04-28 11:58 | 49.64791 | 6.27012 | 4087 ft | 205 kts | 63° |
| 2026-04-28 11:58 | 49.65549 | 6.29024 | 4389 ft | 226 kts | 63° |
| 2026-04-28 11:58 | 49.66376 | 6.31234 | 4699 ft | 249 kts | 63° |
| 2026-04-28 11:59 | 49.67256 | 6.33600 | 5428 ft | 256 kts | 63° |
| 2026-04-28 11:59 | 49.68158 | 6.36007 | 6286 ft | 263 kts | 60° |
| 2026-04-28 11:59 | 49.69488 | 6.38041 | 7091 ft | 276 kts | 34° |
| 2026-04-28 11:59 | 49.71319 | 6.39019 | 8015 ft | 285 kts | 10° |
| 2026-04-28 12:00 | 49.73302 | 6.38754 | 8886 ft | 293 kts | 342° |
| 2026-04-28 12:00 | 49.75072 | 6.37155 | 9785 ft | 297 kts | 316° |
| 2026-04-28 12:00 | 49.76406 | 6.34731 | 10695 ft | 300 kts | 305° |
| 2026-04-28 12:00 | 49.77651 | 6.31973 | 11005 ft | 326 kts | 303° |
| 2026-04-28 12:01 | 49.78953 | 6.28972 | 11212 ft | 353 kts | 303° |
| 2026-04-28 12:01 | 49.80395 | 6.25678 | 11567 ft | 373 kts | 303° |
| 2026-04-28 12:01 | 49.81875 | 6.22367 | 12166 ft | 383 kts | 304° |
| 2026-04-28 12:01 | 49.83412 | 6.18970 | 13035 ft | 386 kts | 304° |
| 2026-04-28 12:02 | 49.84966 | 6.15570 | 13980 ft | 388 kts | 306° |
| 2026-04-28 12:02 | 49.86926 | 6.12691 | 14829 ft | 392 kts | 327° |
| 2026-04-28 12:02 | 49.89387 | 6.10917 | 15827 ft | 391 kts | 339° |
| 2026-04-28 12:02 | 49.91963 | 6.09473 | 16614 ft | 396 kts | 340° |
| 2026-04-28 12:03 | 49.94559 | 6.08063 | 17596 ft | 395 kts | 339° |
| 2026-04-28 12:03 | 49.97167 | 6.06629 | 18367 ft | 401 kts | 338° |
| 2026-04-28 12:03 | 49.99829 | 6.05136 | 18918 ft | 409 kts | 337° |
| 2026-04-28 12:03 | 50.02501 | 6.03617 | 19684 ft | 410 kts | 337° |
| 2026-04-28 12:04 | 50.05189 | 6.02075 | 20377 ft | 412 kts | 338° |
| 2026-04-28 12:04 | 50.07896 | 6.00517 | 20929 ft | 419 kts | 338° |
| 2026-04-28 12:04 | 50.10638 | 5.98937 | 21617 ft | 421 kts | 337° |
| 2026-04-28 12:04 | 50.13399 | 5.97347 | 22258 ft | 424 kts | 337° |
| 2026-04-28 12:05 | 50.16179 | 5.95748 | 22872 ft | 428 kts | 338° |
| 2026-04-28 12:05 | 50.18990 | 5.94125 | 23434 ft | 433 kts | 337° |
| 2026-04-28 12:05 | 50.21826 | 5.92481 | 23926 ft | 436 kts | 337° |
| 2026-04-28 12:05 | 50.24661 | 5.90838 | 24095 ft | 432 kts | 338° |
| 2026-04-28 12:06 | 50.27501 | 5.89186 | 24145 ft | 439 kts | 338° |
| 2026-04-28 12:06 | 50.30385 | 5.87507 | 24142 ft | 445 kts | 337° |
| 2026-04-28 12:06 | 50.33302 | 5.85811 | 24143 ft | 449 kts | 336° |
| 2026-04-28 12:06 | 50.36237 | 5.84103 | 24136 ft | 450 kts | 338° |
| 2026-04-28 12:07 | 50.39173 | 5.82395 | 24145 ft | 450 kts | 338° |
| 2026-04-28 12:07 | 50.42104 | 5.80683 | 24147 ft | 449 kts | 338° |
| 2026-04-28 12:07 | 50.45030 | 5.78973 | 24144 ft | 448 kts | 338° |
| 2026-04-28 12:07 | 50.47949 | 5.77262 | 24144 ft | 447 kts | 338° |
| 2026-04-28 12:08 | 50.50820 | 5.75579 | 24150 ft | 446 kts | 338° |
| 2026-04-28 12:08 | 50.53722 | 5.73873 | 24159 ft | 445 kts | 338° |
| 2026-04-28 12:08 | 50.56624 | 5.72164 | 24155 ft | 445 kts | 338° |
| 2026-04-28 12:08 | 50.59539 | 5.70485 | 24162 ft | 447 kts | 340° |
| 2026-04-28 12:09 | 50.62520 | 5.69070 | 24178 ft | 448 kts | 343° |
| 2026-04-28 12:09 | 50.65431 | 5.67389 | 24163 ft | 446 kts | 328° |
| 2026-04-28 12:09 | 50.67807 | 5.64322 | 24191 ft | 440 kts | 309° |
| 2026-04-28 12:09 | 50.69537 | 5.60358 | 24170 ft | 438 kts | 295° |
| 2026-04-28 12:10 | 50.70603 | 5.55895 | 24184 ft | 435 kts | 285° |
| 2026-04-28 12:10 | 50.71493 | 5.51328 | 24174 ft | 435 kts | 285° |
| 2026-04-28 12:10 | 50.72357 | 5.46742 | 24163 ft | 436 kts | 283° |
| 2026-04-28 12:10 | 50.73227 | 5.42156 | 24149 ft | 436 kts | 284° |
| 2026-04-28 12:11 | 50.74108 | 5.37575 | 24155 ft | 436 kts | 286° |
| 2026-04-28 12:11 | 50.75005 | 5.32991 | 24170 ft | 436 kts | 285° |
| 2026-04-28 12:11 | 50.75908 | 5.28416 | 24150 ft | 436 kts | 284° |
| 2026-04-28 12:11 | 50.76811 | 5.23835 | 24158 ft | 438 kts | 286° |
| 2026-04-28 12:12 | 50.77716 | 5.19238 | 24153 ft | 439 kts | 285° |
| 2026-04-28 12:12 | 50.78622 | 5.14622 | 24188 ft | 440 kts | 286° |
| 2026-04-28 12:12 | 50.79519 | 5.10046 | 24176 ft | 442 kts | 285° |
| 2026-04-28 12:12 | 50.80429 | 5.05397 | 24168 ft | 444 kts | 284° |
| 2026-04-28 12:13 | 50.81334 | 5.00725 | 24173 ft | 445 kts | 284° |
| 2026-04-28 12:13 | 50.82229 | 4.96032 | 24181 ft | 447 kts | 284° |
| 2026-04-28 12:13 | 50.83124 | 4.91322 | 24174 ft | 448 kts | 284° |
| 2026-04-28 12:13 | 50.84021 | 4.86597 | 24172 ft | 448 kts | 286° |
| 2026-04-28 12:14 | 50.84916 | 4.81874 | 24165 ft | 447 kts | 285° |
| 2026-04-28 12:14 | 50.85806 | 4.77167 | 24168 ft | 445 kts | 285° |
| 2026-04-28 12:14 | 50.86693 | 4.72477 | 24171 ft | 444 kts | 285° |
| 2026-04-28 12:14 | 50.87579 | 4.67782 | 24192 ft | 444 kts | 284° |
| 2026-04-28 12:15 | 50.88462 | 4.63094 | 24191 ft | 447 kts | 285° |
| 2026-04-28 12:15 | 50.89355 | 4.58333 | 24190 ft | 454 kts | 284° |
| 2026-04-28 12:15 | 50.90369 | 4.53604 | 24178 ft | 453 kts | 291° |
| 2026-04-28 12:15 | 50.91829 | 4.49215 | 24181 ft | 449 kts | 300° |
| 2026-04-28 12:16 | 50.93497 | 4.45002 | 24189 ft | 451 kts | 301° |
| 2026-04-28 12:16 | 50.95179 | 4.40797 | 24191 ft | 452 kts | 300° |
| 2026-04-28 12:16 | 50.96853 | 4.36566 | 24182 ft | 455 kts | 300° |
| 2026-04-28 12:16 | 50.98530 | 4.32304 | 24194 ft | 455 kts | 300° |
| 2026-04-28 12:17 | 51.00189 | 4.28026 | 24188 ft | 456 kts | 300° |
| 2026-04-28 12:17 | 51.01847 | 4.23743 | 24190 ft | 452 kts | 300° |
| 2026-04-28 12:17 | 51.03457 | 4.19556 | 24175 ft | 447 kts | 300° |
| 2026-04-28 12:17 | 51.05074 | 4.15332 | 24184 ft | 448 kts | 300° |
| 2026-04-28 12:18 | 51.06675 | 4.11154 | 24163 ft | 434 kts | 300° |
| 2026-04-28 12:18 | 51.08242 | 4.07096 | 23786 ft | 425 kts | 302° |
| 2026-04-28 12:18 | 51.10043 | 4.03405 | 23279 ft | 419 kts | 312° |
| 2026-04-28 12:18 | 51.12162 | 4.00278 | 22802 ft | 412 kts | 322° |
| 2026-04-28 12:19 | 51.14460 | 3.97600 | 22320 ft | 408 kts | 324° |
| 2026-04-28 12:19 | 51.16755 | 3.94975 | 21825 ft | 404 kts | 323° |
| 2026-04-28 12:19 | 51.19013 | 3.92343 | 21331 ft | 402 kts | 323° |
| 2026-04-28 12:19 | 51.21280 | 3.89661 | 20863 ft | 410 kts | 323° |
| 2026-04-28 12:20 | 51.23769 | 3.87495 | 20330 ft | 407 kts | 342° |
| 2026-04-28 12:20 | 51.26531 | 3.86742 | 19822 ft | 400 kts | 359° |
| 2026-04-28 12:20 | 51.29298 | 3.86670 | 19330 ft | 395 kts | 1° |
| 2026-04-28 12:20 | 51.32034 | 3.86653 | 18847 ft | 391 kts | 2° |
| 2026-04-28 12:21 | 51.34736 | 3.86645 | 18370 ft | 386 kts | 1° |
| 2026-04-28 12:21 | 51.37419 | 3.86617 | 17848 ft | 385 kts | 1° |
| 2026-04-28 12:21 | 51.40093 | 3.86574 | 17366 ft | 383 kts | 1° |
| 2026-04-28 12:21 | 51.42745 | 3.86519 | 16906 ft | 379 kts | 2° |
| 2026-04-28 12:22 | 51.45373 | 3.86464 | 16436 ft | 376 kts | 2° |
| 2026-04-28 12:22 | 51.47980 | 3.86404 | 15984 ft | 373 kts | 2° |
| 2026-04-28 12:22 | 51.50565 | 3.86343 | 15529 ft | 370 kts | 1° |
| 2026-04-28 12:22 | 51.53133 | 3.86280 | 15073 ft | 367 kts | 2° |
| 2026-04-28 12:23 | 51.55633 | 3.86216 | 14642 ft | 362 kts | 3° |
| 2026-04-28 12:23 | 51.58137 | 3.86156 | 14213 ft | 358 kts | 2° |
| 2026-04-28 12:23 | 51.60631 | 3.86102 | 13753 ft | 357 kts | 3° |
| 2026-04-28 12:23 | 51.63113 | 3.86043 | 13273 ft | 356 kts | 2° |
| 2026-04-28 12:24 | 51.65569 | 3.85982 | 12865 ft | 349 kts | 2° |
| 2026-04-28 12:24 | 51.67979 | 3.85920 | 12454 ft | 344 kts | 2° |
| 2026-04-28 12:24 | 51.70373 | 3.85893 | 12030 ft | 343 kts | 7° |
| 2026-04-28 12:24 | 51.72644 | 3.86816 | 11644 ft | 333 kts | 29° |
| 2026-04-28 12:25 | 51.74517 | 3.88867 | 11400 ft | 322 kts | 43° |
| 2026-04-28 12:25 | 51.76201 | 3.91288 | 11091 ft | 328 kts | 45° |
| 2026-04-28 12:25 | 51.77870 | 3.93744 | 10951 ft | 317 kts | 45° |
| 2026-04-28 12:25 | 51.79469 | 3.96095 | 10804 ft | 305 kts | 46° |
| 2026-04-28 12:26 | 51.81017 | 3.98358 | 10684 ft | 296 kts | 45° |
| 2026-04-28 12:26 | 51.82514 | 4.00538 | 10559 ft | 288 kts | 46° |
| 2026-04-28 12:26 | 51.83979 | 4.02666 | 10442 ft | 278 kts | 45° |
| 2026-04-28 12:26 | 51.85395 | 4.04720 | 10331 ft | 268 kts | 45° |
| 2026-04-28 12:27 | 51.86760 | 4.06696 | 10191 ft | 260 kts | 46° |
| 2026-04-28 12:27 | 51.88098 | 4.08638 | 9939 ft | 257 kts | 45° |
| 2026-04-28 12:27 | 51.89433 | 4.10575 | 9656 ft | 256 kts | 45° |
| 2026-04-28 12:27 | 51.90763 | 4.12507 | 9395 ft | 256 kts | 46° |
| 2026-04-28 12:28 | 51.91880 | 4.14684 | 9155 ft | 248 kts | 62° |
| 2026-04-28 12:28 | 51.92736 | 4.17094 | 8892 ft | 246 kts | 63° |
| 2026-04-28 12:28 | 51.93580 | 4.19520 | 8632 ft | 249 kts | 63° |
| 2026-04-28 12:28 | 51.94428 | 4.21953 | 8372 ft | 246 kts | 63° |
| 2026-04-28 12:29 | 51.96105 | 4.26749 | 7838 ft | 243 kts | 63° |
| 2026-04-28 12:29 | 51.96938 | 4.29110 | 7571 ft | 240 kts | 63° |
| 2026-04-28 12:29 | 51.97768 | 4.31456 | 7331 ft | 239 kts | 62° |
| 2026-04-28 12:30 | 51.98604 | 4.33823 | 7077 ft | 244 kts | 62° |
| 2026-04-28 12:30 | 51.99445 | 4.36200 | 6813 ft | 242 kts | 63° |
| 2026-04-28 12:30 | 52.00278 | 4.38552 | 6554 ft | 240 kts | 62° |
| 2026-04-28 12:30 | 52.01105 | 4.40895 | 6285 ft | 238 kts | 63° |
| 2026-04-28 12:31 | 52.01916 | 4.43187 | 6025 ft | 236 kts | 63° |
| 2026-04-28 12:31 | 52.02730 | 4.45493 | 5795 ft | 234 kts | 62° |
| 2026-04-28 12:31 | 52.03535 | 4.47771 | 5544 ft | 232 kts | 63° |
| 2026-04-28 12:31 | 52.04335 | 4.50044 | 5311 ft | 232 kts | 62° |
| 2026-04-28 12:32 | 52.05140 | 4.52335 | 5058 ft | 236 kts | 62° |
| 2026-04-28 12:32 | 52.05948 | 4.54634 | 4786 ft | 233 kts | 62° |
| 2026-04-28 12:32 | 52.06748 | 4.56911 | 4531 ft | 231 kts | 62° |
| 2026-04-28 12:32 | 52.07543 | 4.59177 | 4263 ft | 230 kts | 62° |
| 2026-04-28 12:33 | 52.08331 | 4.61424 | 4008 ft | 228 kts | 62° |
| 2026-04-28 12:33 | 52.09111 | 4.63649 | 3708 ft | 227 kts | 61° |
| 2026-04-28 12:33 | 52.09890 | 4.65866 | 3544 ft | 220 kts | 62° |
| 2026-04-28 12:33 | 52.10617 | 4.67944 | 3445 ft | 205 kts | 62° |
| 2026-04-28 12:34 | 52.11297 | 4.69886 | 3347 ft | 190 kts | 61° |
| 2026-04-28 12:34 | 52.11924 | 4.71679 | 3247 ft | 176 kts | 62° |
| 2026-04-28 12:34 | 52.12514 | 4.73369 | 3108 ft | 171 kts | 62° |
| 2026-04-28 12:34 | 52.13124 | 4.75024 | 3031 ft | 172 kts | 52° |
| 2026-04-28 12:35 | 52.14140 | 4.75903 | 2951 ft | 168 kts | 14° |
| 2026-04-28 12:35 | 52.15279 | 4.76202 | 2738 ft | 163 kts | 16° |
| 2026-04-28 12:35 | 52.16387 | 4.76476 | 2525 ft | 158 kts | 14° |
| 2026-04-28 12:35 | 52.17102 | 4.76588 | 2384 ft | 154 kts | 12° |
| 2026-04-28 12:36 | 52.18176 | 4.76714 | 2184 ft | 152 kts | 10° |
| 2026-04-28 12:36 | 52.19214 | 4.76823 | 1962 ft | 147 kts | 10° |
| 2026-04-28 12:36 | 52.20230 | 4.76915 | 1756 ft | 146 kts | 10° |
| 2026-04-28 12:36 | 52.21243 | 4.77005 | 1586 ft | 146 kts | 9° |
| 2026-04-28 12:37 | 52.22242 | 4.77096 | 1355 ft | 138 kts | 9° |
| 2026-04-28 12:37 | 52.23160 | 4.77180 | 1166 ft | 130 kts | 9° |
| 2026-04-28 12:37 | 52.24036 | 4.77262 | 1032 ft | 124 kts | 11° |
| 2026-04-28 12:37 | 52.24888 | 4.77342 | 848 ft | 123 kts | 10° |
| 2026-04-28 12:38 | 52.25746 | 4.77423 | 690 ft | 124 kts | 9° |
| 2026-04-28 12:38 | 52.26618 | 4.77504 | 517 ft | 129 kts | 8° |
| 2026-04-28 12:38 | 52.27514 | 4.77585 | 351 ft | 127 kts | 9° |
| 2026-04-28 12:38 | 52.28390 | 4.77652 | 189 ft | 125 kts | 10° |
| 2026-04-28 12:39 | 52.29257 | 4.77738 | 36 ft | 126 kts | 9° |
| 2026-04-28 12:39 | 52.30033 | 4.77824 | -4 ft | 96 kts | 5° |
| 2026-04-28 12:39 | 52.30579 | 4.77875 | -1 ft | 61 kts | 3° |
| 2026-04-28 12:39 | 52.30882 | 4.77856 | -5 ft | 27 kts | 341° |
| 2026-04-28 12:40 | 52.30947 | 4.77811 | -4 ft | 0 kts | 334° |
| 2026-04-28 12:40 | 52.30991 | 4.77774 | -3 ft | 11 kts | 332° |
| 2026-04-28 12:40 | 52.31063 | 4.77715 | -2 ft | 11 kts | 333° |
| 2026-04-28 12:40 | 52.31133 | 4.77662 | -2 ft | 11 kts | 329° |
| 2026-04-28 12:41 | 52.31154 | 4.77593 | -2 ft | 7 kts | 270° |
| 2026-04-28 12:41 | 52.31133 | 4.77513 | -2 ft | 9 kts | 211° |
| 2026-04-28 12:41 | 52.31064 | 4.77519 | -2 ft | 8 kts | 167° |
| 2026-04-28 12:41 | 52.31015 | 4.77516 | -2 ft | 6 kts | 203° |
| 2026-04-28 12:42 | 52.30957 | 4.77485 | -2 ft | 13 kts | 188° |
| 2026-04-28 12:42 | 52.30816 | 4.77470 | -2 ft | 26 kts | 183° |
| 2026-04-28 12:42 | 52.30667 | 4.77450 | -2 ft | 11 kts | 199° |
| 2026-04-28 12:42 | 52.30641 | 4.77342 | -2 ft | 11 kts | 270° |
| 2026-04-28 12:43 | 52.30646 | 4.77237 | -2 ft | 6 kts | 276° |
| 2026-04-28 12:43 | 52.30669 | 4.77215 | -2 ft | 4 kts | 356° |
| 2026-04-28 12:43 | 52.30698 | 4.77215 | -2 ft | 4 kts | 2° |
| 2026-04-28 12:43 | 52.30706 | 4.77216 | -2 ft | 0 kts | 4° |